20°C Temp
16°C Dewpoint
78% Humidity
Temperature
16 KM/H
10 MPH
9 KTS
360°
Due North

Wind Speed
Mostly Scattered
Clouds
Pressure 1011.92 (hPa) - 29.88 (in)
Visibility 6.2 (mi) - 10.0 (km)

Current Conditions
LIMC
Location Malpensa 50(km)
Metar :LIMC 180420Z 36009KT 9999 SCT040TCU BKN060 20/16 Q1012 NOSIG
Thu 18th August 05:20 am

Airport
  Metar Aviation API Data Provided by https://www.checkwx.com/ PHP scripts by weather34.com ©2022